PWSweather.com
Personal Weather Stations
Station Observations
SHAHALMS1
Eftra, Falkenberg, HA

EftraFalkenberg, HA

Lat: 56.85, Lon: 12.65

Elevation: 140

Station Type:

http://hem.passagen.se/risarp101

High Low Average
Temperature 59.0°F15.0°C 41.0°F5.0°C 49.4°F9.7°C
Dew Point 38.8°F3.8°C 22.8°F-5.1°C 31.0°F-0.6°C
Winds 13.9 mph 22.4 kmh 5.2 mph 8.4 kmh 9.0 mph E14.5 kmh E
Wind Gusts 28.3 mph45.5 kmh 11.5 mph18.5 kmh 18.0 mph29.0 kmh
Humidity 52% 44% 49%
Pressure 29.80 in1009.1 mb 29.68 in1005.1 mb -
Precipitation 0.00 in0.0 mm - -
Hour Temp Dew Point Humidity Winds Wind Gusts Pressure Precip Precip Rate Daily Precip Total
12:00 AM 41.5°F5.3°C 22.8°F-5.1°C 47% 7.3 mph E11.7 kmh E 13.6 mph21.9 kmh 29.80 in1009.1 mb 0.00 in0.0 mm 0.00 in0.0 mm 0.00 in0.0 mm
12:16 AM 41.5°F5.3°C 23.3°F-4.8°C 48% 7.1 mph E11.4 kmh E 14.0 mph22.5 kmh 29.80 in1009.1 mb 0.00 in0.0 mm 0.00 in0.0 mm 0.00 in0.0 mm
12:33 AM 41.5°F5.3°C 23.3°F-4.8°C 48% 8.6 mph E13.8 kmh E 19.3 mph31.1 kmh 29.80 in1009.1 mb 0.00 in0.0 mm 0.00 in0.0 mm 0.00 in0.0 mm
12:45 AM 41.9°F5.5°C 23.6°F-4.7°C 48% 8.5 mph E13.7 kmh E 15.7 mph25.3 kmh 29.80 in1009.1 mb 0.00 in0.0 mm 0.00 in0.0 mm 0.00 in0.0 mm
01:00 AM 41.5°F5.3°C 23.8°F-4.6°C 49% 7.8 mph E12.6 kmh E 12.5 mph20.1 kmh 29.77 in1008.1 mb 0.00 in0.0 mm 0.00 in0.0 mm 0.00 in0.0 mm
01:15 AM 41.4°F5.2°C 23.6°F-4.7°C 49% 6.4 mph E10.3 kmh E 11.8 mph19.0 kmh 29.77 in1008.1 mb 0.00 in0.0 mm 0.00 in0.0 mm 0.00 in0.0 mm
01:30 AM 41.0°F5.0°C 23.8°F-4.6°C 50% 5.2 mph E8.4 kmh E 11.5 mph18.5 kmh 29.77 in1008.1 mb 0.00 in0.0 mm 0.00 in0.0 mm 0.00 in0.0 mm
01:45 AM 41.0°F5.0°C 23.8°F-4.6°C 50% 5.3 mph E8.5 kmh E 11.5 mph18.5 kmh 29.80 in1009.1 mb 0.00 in0.0 mm 0.00 in0.0 mm 0.00 in0.0 mm
02:00 AM 41.2°F5.1°C 24.4°F-4.2°C 51% 6.2 mph E10.0 kmh E 21.1 mph34.0 kmh 29.77 in1008.1 mb 0.00 in0.0 mm 0.00 in0.0 mm 0.00 in0.0 mm
02:15 AM 41.2°F5.1°C 24.4°F-4.2°C 51% 6.0 mph E9.7 kmh E 12.9 mph20.8 kmh 29.77 in1008.1 mb 0.00 in0.0 mm 0.00 in0.0 mm 0.00 in0.0 mm
02:30 AM 41.2°F5.1°C 24.4°F-4.2°C 51% 7.0 mph E11.3 kmh E 16.5 mph26.6 kmh 29.77 in1008.1 mb 0.00 in0.0 mm 0.00 in0.0 mm 0.00 in0.0 mm
02:45 AM 41.5°F5.3°C 24.7°F-4.1°C 51% 6.7 mph E10.8 kmh E 12.9 mph20.8 kmh 29.74 in1007.1 mb 0.00 in0.0 mm 0.00 in0.0 mm 0.00 in0.0 mm
03:00 AM 41.7°F5.4°C 24.9°F-3.9°C 51% 6.6 mph E10.6 kmh E 13.6 mph21.9 kmh 29.74 in1007.1 mb 0.00 in0.0 mm 0.00 in0.0 mm 0.00 in0.0 mm
03:15 AM 41.9°F5.5°C 25.1°F-3.8°C 51% 8.1 mph E13.0 kmh E 14.0 mph22.5 kmh 29.74 in1007.1 mb 0.00 in0.0 mm 0.00 in0.0 mm 0.00 in0.0 mm
03:30 AM 42.4°F5.8°C 25.6°F-3.6°C 51% 8.5 mph E13.7 kmh E 15.4 mph24.8 kmh 29.74 in1007.1 mb 0.00 in0.0 mm 0.00 in0.0 mm 0.00 in0.0 mm
03:45 AM 42.4°F5.8°C 25.6°F-3.6°C 51% 8.8 mph E14.2 kmh E 17.2 mph27.7 kmh 29.71 in1006.1 mb 0.00 in0.0 mm 0.00 in0.0 mm 0.00 in0.0 mm
04:00 AM 42.3°F5.7°C 25.4°F-3.7°C 51% 8.2 mph E13.2 kmh E 15.7 mph25.3 kmh 29.71 in1006.1 mb 0.00 in0.0 mm 0.00 in0.0 mm 0.00 in0.0 mm
04:15 AM 42.1°F5.6°C 25.2°F-3.8°C 51% 8.7 mph E14.0 kmh E 15.7 mph25.3 kmh 29.71 in1006.1 mb 0.00 in0.0 mm 0.00 in0.0 mm 0.00 in0.0 mm
04:30 AM 41.5°F5.3°C 24.7°F-4.1°C 51% 7.6 mph E12.2 kmh E 14.0 mph22.5 kmh 29.71 in1006.1 mb 0.00 in0.0 mm 0.00 in0.0 mm 0.00 in0.0 mm
04:45 AM 41.7°F5.4°C 24.9°F-3.9°C 51% 8.2 mph E13.2 kmh E 17.2 mph27.7 kmh 29.71 in1006.1 mb 0.00 in0.0 mm 0.00 in0.0 mm 0.00 in0.0 mm
05:00 AM 41.9°F5.5°C 25.1°F-3.8°C 51% 7.5 mph E12.1 kmh E 15.0 mph24.1 kmh 29.71 in1006.1 mb 0.00 in0.0 mm 0.00 in0.0 mm 0.00 in0.0 mm
05:15 AM 41.7°F5.4°C 25.4°F-3.7°C 52% 5.8 mph E9.3 kmh E 11.8 mph19.0 kmh 29.71 in1006.1 mb 0.00 in0.0 mm 0.00 in0.0 mm 0.00 in0.0 mm
05:30 AM 41.5°F5.3°C 25.2°F-3.8°C 52% 7.7 mph E12.4 kmh E 14.0 mph22.5 kmh 29.74 in1007.1 mb 0.00 in0.0 mm 0.00 in0.0 mm 0.00 in0.0 mm
05:45 AM 41.9°F5.5°C 25.5°F-3.6°C 52% 5.4 mph E8.7 kmh E 11.8 mph19.0 kmh 29.71 in1006.1 mb 0.00 in0.0 mm 0.00 in0.0 mm 0.00 in0.0 mm
06:00 AM 42.3°F5.7°C 25.9°F-3.4°C 52% 6.8 mph E10.9 kmh E 12.5 mph20.1 kmh 29.68 in1005.1 mb 0.00 in0.0 mm 0.00 in0.0 mm 0.00 in0.0 mm
06:15 AM 42.8°F6.0°C 26.4°F-3.1°C 52% 6.7 mph E10.8 kmh E 12.5 mph20.1 kmh 29.68 in1005.1 mb 0.00 in0.0 mm 0.00 in0.0 mm 0.00 in0.0 mm
06:30 AM 42.8°F6.0°C 26.4°F-3.1°C 52% 6.0 mph E9.7 kmh E 15.0 mph24.1 kmh 29.71 in1006.1 mb 0.00 in0.0 mm 0.00 in0.0 mm 0.00 in0.0 mm
06:45 AM 43.2°F6.2°C 26.7°F-2.9°C 52% 7.9 mph E12.7 kmh E 14.0 mph22.5 kmh 29.71 in1006.1 mb 0.00 in0.0 mm 0.00 in0.0 mm 0.00 in0.0 mm
07:00 AM 43.3°F6.3°C 26.9°F-2.8°C 52% 7.5 mph E12.1 kmh E 12.9 mph20.8 kmh 29.74 in1007.1 mb 0.00 in0.0 mm 0.00 in0.0 mm 0.00 in0.0 mm
07:15 AM 43.9°F6.6°C 27.4°F-2.6°C 52% 7.7 mph E12.4 kmh E 16.5 mph26.6 kmh 29.74 in1007.1 mb 0.00 in0.0 mm 0.00 in0.0 mm 0.00 in0.0 mm
07:30 AM 43.9°F6.6°C 27.4°F-2.6°C 52% 12.6 mph E20.3 kmh E 24.3 mph39.1 kmh 29.77 in1008.1 mb 0.00 in0.0 mm 0.00 in0.0 mm 0.00 in0.0 mm
07:45 AM 44.4°F6.9°C 27.9°F-2.3°C 52% 10.4 mph E16.7 kmh E 20.0 mph32.2 kmh 29.74 in1007.1 mb 0.00 in0.0 mm 0.00 in0.0 mm 0.00 in0.0 mm
08:00 AM 45.3°F7.4°C 28.7°F-1.8°C 52% 8.6 mph E13.8 kmh E 17.2 mph27.7 kmh 29.74 in1007.1 mb 0.00 in0.0 mm 0.00 in0.0 mm 0.00 in0.0 mm
08:16 AM 46.6°F8.1°C 29.9°F-1.2°C 52% 10.4 mph E16.7 kmh E 23.6 mph38.0 kmh 29.74 in1007.1 mb 0.00 in0.0 mm 0.00 in0.0 mm 0.00 in0.0 mm
08:31 AM 47.5°F8.6°C 30.2°F-1.0°C 51% 10.6 mph E17.1 kmh E 20.0 mph32.2 kmh 29.74 in1007.1 mb 0.00 in0.0 mm 0.00 in0.0 mm 0.00 in0.0 mm
08:45 AM 48.2°F9.0°C 30.9°F-0.6°C 51% 8.3 mph E13.4 kmh E 16.1 mph25.9 kmh 29.74 in1007.1 mb 0.00 in0.0 mm 0.00 in0.0 mm 0.00 in0.0 mm
09:00 AM 49.1°F9.5°C 31.7°F-0.2°C 51% 7.2 mph E11.6 kmh E 15.0 mph24.1 kmh 29.74 in1007.1 mb 0.00 in0.0 mm 0.00 in0.0 mm 0.00 in0.0 mm
09:15 AM 50.0°F10.0°C 32.6°F0.3°C 51% 8.1 mph E13.0 kmh E 16.8 mph27.0 kmh 29.74 in1007.1 mb 0.00 in0.0 mm 0.00 in0.0 mm 0.00 in0.0 mm
09:30 AM 49.3°F9.6°C 31.9°F-0.1°C 51% 7.7 mph E12.4 kmh E 14.0 mph22.5 kmh 29.74 in1007.1 mb 0.00 in0.0 mm 0.00 in0.0 mm 0.00 in0.0 mm
09:45 AM 49.8°F9.9°C 32.4°F0.2°C 51% 9.0 mph E14.5 kmh E 17.2 mph27.7 kmh 29.74 in1007.1 mb 0.00 in0.0 mm 0.00 in0.0 mm 0.00 in0.0 mm
10:00 AM 51.3°F10.7°C 34.2°F1.2°C 52% 7.7 mph E12.4 kmh E 14.0 mph22.5 kmh 29.77 in1008.1 mb 0.00 in0.0 mm 0.00 in0.0 mm 0.00 in0.0 mm
10:15 AM 53.1°F11.7°C 35.4°F1.9°C 51% 8.7 mph SE14.0 kmh SE 17.5 mph28.2 kmh 29.77 in1008.1 mb 0.00 in0.0 mm 0.00 in0.0 mm 0.00 in0.0 mm
10:30 AM 54.3°F12.4°C 36.1°F2.3°C 50% 10.7 mph ESE17.2 kmh ESE 19.3 mph31.1 kmh 29.77 in1008.1 mb 0.00 in0.0 mm 0.00 in0.0 mm 0.00 in0.0 mm
10:45 AM 54.7°F12.6°C 36.4°F2.4°C 50% 12.7 mph ESE20.4 kmh ESE 23.6 mph38.0 kmh 29.77 in1008.1 mb 0.00 in0.0 mm 0.00 in0.0 mm 0.00 in0.0 mm
11:00 AM 55.0°F12.8°C 36.7°F2.6°C 50% 11.3 mph E18.2 kmh E 21.8 mph35.1 kmh 29.74 in1007.1 mb 0.00 in0.0 mm 0.00 in0.0 mm 0.00 in0.0 mm
11:15 AM 55.8°F13.2°C 37.4°F3.0°C 50% 11.4 mph E18.3 kmh E 19.7 mph31.7 kmh 29.74 in1007.1 mb 0.00 in0.0 mm 0.00 in0.0 mm 0.00 in0.0 mm
11:30 AM 56.7°F13.7°C 37.7°F3.2°C 49% 10.2 mph E16.4 kmh E 19.7 mph31.7 kmh 29.77 in1008.1 mb 0.00 in0.0 mm 0.00 in0.0 mm 0.00 in0.0 mm
11:45 AM 57.4°F14.1°C 37.8°F3.2°C 48% 9.2 mph ESE14.8 kmh ESE 17.5 mph28.2 kmh 29.77 in1008.1 mb 0.00 in0.0 mm 0.00 in0.0 mm 0.00 in0.0 mm
12:00 PM 57.9°F14.4°C 37.8°F3.2°C 47% 9.1 mph SE14.6 kmh SE 23.3 mph37.5 kmh 29.77 in1008.1 mb 0.00 in0.0 mm 0.00 in0.0 mm 0.00 in0.0 mm
12:15 PM 58.1°F14.5°C 38.0°F3.3°C 47% 8.3 mph SE13.4 kmh SE 23.3 mph37.5 kmh 29.80 in1009.1 mb 0.00 in0.0 mm 0.00 in0.0 mm 0.00 in0.0 mm
12:30 PM 58.1°F14.5°C 38.0°F3.3°C 47% 9.4 mph SE15.1 kmh SE 23.3 mph37.5 kmh 29.74 in1007.1 mb 0.00 in0.0 mm 0.00 in0.0 mm 0.00 in0.0 mm
12:45 PM 58.1°F14.5°C 38.0°F3.3°C 47% 10.2 mph SE16.4 kmh SE 20.8 mph33.5 kmh 29.74 in1007.1 mb 0.00 in0.0 mm 0.00 in0.0 mm 0.00 in0.0 mm
01:00 PM 58.3°F14.6°C 38.1°F3.4°C 47% 9.1 mph ESE14.6 kmh ESE 16.5 mph26.6 kmh 29.77 in1008.1 mb 0.00 in0.0 mm 0.00 in0.0 mm 0.00 in0.0 mm
01:15 PM 58.6°F14.8°C 38.5°F3.6°C 47% 9.1 mph ESE14.6 kmh ESE 17.5 mph28.2 kmh 29.77 in1008.1 mb 0.00 in0.0 mm 0.00 in0.0 mm 0.00 in0.0 mm
01:30 PM 58.6°F14.8°C 38.5°F3.6°C 47% 10.8 mph ESE17.4 kmh ESE 20.8 mph33.5 kmh 29.77 in1008.1 mb 0.00 in0.0 mm 0.00 in0.0 mm 0.00 in0.0 mm
01:45 PM 59.0°F15.0°C 38.8°F3.8°C 47% 6.6 mph SE10.6 kmh SE 16.5 mph26.6 kmh 29.77 in1008.1 mb 0.00 in0.0 mm 0.00 in0.0 mm 0.00 in0.0 mm
02:00 PM 59.0°F15.0°C 38.8°F3.8°C 47% 7.6 mph SE12.2 kmh SE 15.7 mph25.3 kmh 29.77 in1008.1 mb 0.00 in0.0 mm 0.00 in0.0 mm 0.00 in0.0 mm
02:15 PM 58.8°F14.9°C 38.1°F3.4°C 46% 9.6 mph E15.4 kmh E 17.2 mph27.7 kmh 29.77 in1008.1 mb 0.00 in0.0 mm 0.00 in0.0 mm 0.00 in0.0 mm
02:30 PM 58.1°F14.5°C 37.4°F3.0°C 46% 10.3 mph E16.6 kmh E 20.4 mph32.8 kmh 29.77 in1008.1 mb 0.00 in0.0 mm 0.00 in0.0 mm 0.00 in0.0 mm
02:45 PM 58.1°F14.5°C 36.9°F2.7°C 45% 10.6 mph E17.1 kmh E 21.1 mph34.0 kmh 29.77 in1008.1 mb 0.00 in0.0 mm 0.00 in0.0 mm 0.00 in0.0 mm
03:00 PM 57.7°F14.3°C 37.1°F2.8°C 46% 11.2 mph E18.0 kmh E 23.6 mph38.0 kmh 29.74 in1007.1 mb 0.00 in0.0 mm 0.00 in0.0 mm 0.00 in0.0 mm
03:15 PM 57.6°F14.2°C 36.4°F2.4°C 45% 12.5 mph E20.1 kmh E 23.6 mph38.0 kmh 29.74 in1007.1 mb 0.00 in0.0 mm 0.00 in0.0 mm 0.00 in0.0 mm
03:30 PM 57.7°F14.3°C 37.1°F2.8°C 46% 10.8 mph E17.4 kmh E 22.9 mph36.9 kmh 29.71 in1006.1 mb 0.00 in0.0 mm 0.00 in0.0 mm 0.00 in0.0 mm
03:45 PM 57.9°F14.4°C 36.7°F2.6°C 45% 10.1 mph E16.3 kmh E 20.4 mph32.8 kmh 29.74 in1007.1 mb 0.00 in0.0 mm 0.00 in0.0 mm 0.00 in0.0 mm
04:00 PM 57.7°F14.3°C 36.5°F2.5°C 45% 12.4 mph E20.0 kmh E 27.6 mph44.4 kmh 29.71 in1006.1 mb 0.00 in0.0 mm 0.00 in0.0 mm 0.00 in0.0 mm
04:17 PM 57.7°F14.3°C 36.5°F2.5°C 45% 11.2 mph E18.0 kmh E 19.7 mph31.7 kmh 29.71 in1006.1 mb 0.00 in0.0 mm 0.00 in0.0 mm 0.00 in0.0 mm
04:31 PM 57.2°F14.0°C 35.5°F1.9°C 44% 11.6 mph E18.7 kmh E 21.5 mph34.6 kmh 29.71 in1006.1 mb 0.00 in0.0 mm 0.00 in0.0 mm 0.00 in0.0 mm
04:45 PM 57.0°F13.9°C 35.9°F2.2°C 45% 11.0 mph E17.7 kmh E 23.3 mph37.5 kmh 29.71 in1006.1 mb 0.00 in0.0 mm 0.00 in0.0 mm 0.00 in0.0 mm
05:00 PM 57.0°F13.9°C 35.9°F2.2°C 45% 11.3 mph E18.2 kmh E 20.4 mph32.8 kmh 29.71 in1006.1 mb 0.00 in0.0 mm 0.00 in0.0 mm 0.00 in0.0 mm
05:15 PM 56.3°F13.5°C 34.6°F1.4°C 44% 12.4 mph E20.0 kmh E 24.3 mph39.1 kmh 29.71 in1006.1 mb 0.00 in0.0 mm 0.00 in0.0 mm 0.00 in0.0 mm
05:30 PM 55.4°F13.0°C 34.4°F1.3°C 45% 13.5 mph E21.7 kmh E 28.3 mph45.5 kmh 29.71 in1006.1 mb 0.00 in0.0 mm 0.00 in0.0 mm 0.00 in0.0 mm
05:45 PM 54.9°F12.7°C 33.9°F1.1°C 45% 11.6 mph E18.7 kmh E 23.3 mph37.5 kmh 29.68 in1005.1 mb 0.00 in0.0 mm 0.00 in0.0 mm 0.00 in0.0 mm
06:00 PM 54.0°F12.2°C 33.1°F0.6°C 45% 12.8 mph E20.6 kmh E 25.1 mph40.4 kmh 29.71 in1006.1 mb 0.00 in0.0 mm 0.00 in0.0 mm 0.00 in0.0 mm
06:15 PM 53.2°F11.8°C 33.0°F0.6°C 46% 13.9 mph E22.4 kmh E 25.8 mph41.5 kmh 29.71 in1006.1 mb 0.00 in0.0 mm 0.00 in0.0 mm 0.00 in0.0 mm
06:30 PM 52.7°F11.5°C 32.5°F0.3°C 46% 11.7 mph E18.8 kmh E 27.9 mph44.9 kmh 29.71 in1006.1 mb 0.00 in0.0 mm 0.00 in0.0 mm 0.00 in0.0 mm
06:45 PM 52.3°F11.3°C 32.2°F0.1°C 46% 10.9 mph E17.5 kmh E 22.9 mph36.9 kmh 29.71 in1006.1 mb 0.00 in0.0 mm 0.00 in0.0 mm 0.00 in0.0 mm
07:00 PM 52.0°F11.1°C 32.4°F0.2°C 47% 12.2 mph E19.6 kmh E 20.4 mph32.8 kmh 29.71 in1006.1 mb 0.00 in0.0 mm 0.00 in0.0 mm 0.00 in0.0 mm
07:15 PM 51.6°F10.9°C 32.6°F0.3°C 48% 10.6 mph E17.1 kmh E 20.0 mph32.2 kmh 29.71 in1006.1 mb 0.00 in0.0 mm 0.00 in0.0 mm 0.00 in0.0 mm
07:30 PM 51.3°F10.7°C 32.2°F0.1°C 48% 12.2 mph E19.6 kmh E 24.3 mph39.1 kmh 29.71 in1006.1 mb 0.00 in0.0 mm 0.00 in0.0 mm 0.00 in0.0 mm
07:45 PM 50.9°F10.5°C 31.4°F-0.3°C 47% 12.3 mph E19.8 kmh E 24.7 mph39.8 kmh 29.71 in1006.1 mb 0.00 in0.0 mm 0.00 in0.0 mm 0.00 in0.0 mm
08:00 PM 50.4°F10.2°C 31.4°F-0.3°C 48% 11.1 mph E17.9 kmh E 21.1 mph34.0 kmh 29.71 in1006.1 mb 0.00 in0.0 mm 0.00 in0.0 mm 0.00 in0.0 mm
08:15 PM 49.8°F9.9°C 31.4°F-0.3°C 49% 9.6 mph E15.4 kmh E 20.0 mph32.2 kmh 29.74 in1007.1 mb 0.00 in0.0 mm 0.00 in0.0 mm 0.00 in0.0 mm
08:30 PM 49.5°F9.7°C 31.1°F-0.5°C 49% 11.1 mph E17.9 kmh E 24.3 mph39.1 kmh 29.71 in1006.1 mb 0.00 in0.0 mm 0.00 in0.0 mm 0.00 in0.0 mm
08:45 PM 48.9°F9.4°C 31.1°F-0.5°C 50% 9.4 mph E15.1 kmh E 17.9 mph28.8 kmh 29.71 in1006.1 mb 0.00 in0.0 mm 0.00 in0.0 mm 0.00 in0.0 mm
09:00 PM 48.6°F9.2°C 30.7°F-0.7°C 50% 10.1 mph E16.3 kmh E 20.4 mph32.8 kmh 29.71 in1006.1 mb 0.00 in0.0 mm 0.00 in0.0 mm 0.00 in0.0 mm
09:15 PM 48.4°F9.1°C 30.6°F-0.8°C 50% 11.1 mph E17.9 kmh E 17.9 mph28.8 kmh 29.71 in1006.1 mb 0.00 in0.0 mm 0.00 in0.0 mm 0.00 in0.0 mm
09:30 PM 48.0°F8.9°C 30.2°F-1.0°C 50% 8.1 mph E13.0 kmh E 15.4 mph24.8 kmh 29.71 in1006.1 mb 0.00 in0.0 mm 0.00 in0.0 mm 0.00 in0.0 mm
09:45 PM 48.0°F8.9°C 30.2°F-1.0°C 50% 9.3 mph E15.0 kmh E 16.1 mph25.9 kmh 29.71 in1006.1 mb 0.00 in0.0 mm 0.00 in0.0 mm 0.00 in0.0 mm
10:00 PM 47.8°F8.8°C 30.1°F-1.1°C 50% 9.2 mph E14.8 kmh E 16.5 mph26.6 kmh 29.71 in1006.1 mb 0.00 in0.0 mm 0.00 in0.0 mm 0.00 in0.0 mm
10:15 PM 47.8°F8.8°C 30.6°F-0.8°C 51% 9.2 mph E14.8 kmh E 19.3 mph31.1 kmh 29.71 in1006.1 mb 0.00 in0.0 mm 0.00 in0.0 mm 0.00 in0.0 mm
10:30 PM 47.8°F8.8°C 30.6°F-0.8°C 51% 9.2 mph E14.8 kmh E 15.4 mph24.8 kmh 29.71 in1006.1 mb 0.00 in0.0 mm 0.00 in0.0 mm 0.00 in0.0 mm
10:45 PM 47.7°F8.7°C 30.4°F-0.9°C 51% 8.6 mph E13.8 kmh E 16.5 mph26.6 kmh 29.71 in1006.1 mb 0.00 in0.0 mm 0.00 in0.0 mm 0.00 in0.0 mm
11:00 PM 47.7°F8.7°C 30.4°F-0.9°C 51% 8.2 mph E13.2 kmh E 16.5 mph26.6 kmh 29.71 in1006.1 mb 0.00 in0.0 mm 0.00 in0.0 mm 0.00 in0.0 mm
11:15 PM 47.8°F8.8°C 30.6°F-0.8°C 51% 9.5 mph E15.3 kmh E 17.2 mph27.7 kmh 29.68 in1005.1 mb 0.00 in0.0 mm 0.00 in0.0 mm 0.00 in0.0 mm
11:30 PM 47.5°F8.6°C 30.2°F-1.0°C 51% 7.7 mph E12.4 kmh E 16.8 mph27.0 kmh 29.68 in1005.1 mb 0.00 in0.0 mm 0.00 in0.0 mm 0.00 in0.0 mm
11:45 PM 47.3°F8.5°C 30.5°F-0.8°C 52% 6.9 mph E11.1 kmh E 14.0 mph22.5 kmh 29.71 in1006.1 mb 0.00 in0.0 mm 0.00 in0.0 mm 0.00 in0.0 mm